sensor_id;sensor_type;location;lat;lon;timestamp;pressure;altitude;pressure_sealevel;temperature;humidity
39949;BME280;29070;48.102;-1.652;2023-02-12T00:02:17;103268.34;;;4.25;73.27
39949;BME280;29070;48.102;-1.652;2023-02-12T00:07:17;103279.00;;;4.20;73.32
39949;BME280;29070;48.102;-1.652;2023-02-12T00:12:18;103273.13;;;4.16;73.54
39949;BME280;29070;48.102;-1.652;2023-02-12T00:17:18;103277.59;;;4.14;73.52
39949;BME280;29070;48.102;-1.652;2023-02-12T00:22:18;103275.69;;;4.02;73.42
39949;BME280;29070;48.102;-1.652;2023-02-12T00:27:19;103273.63;;;3.93;73.12
39949;BME280;29070;48.102;-1.652;2023-02-12T00:32:19;103272.47;;;3.82;73.30
39949;BME280;29070;48.102;-1.652;2023-02-12T00:37:19;103275.78;;;3.70;73.00
39949;BME280;29070;48.102;-1.652;2023-02-12T00:42:20;103281.09;;;3.53;72.85
39949;BME280;29070;48.102;-1.652;2023-02-12T00:47:20;103280.06;;;3.39;72.71
39949;BME280;29070;48.102;-1.652;2023-02-12T00:52:20;103284.13;;;3.29;73.05
39949;BME280;29070;48.102;-1.652;2023-02-12T00:57:21;103278.66;;;3.18;73.17
39949;BME280;29070;48.102;-1.652;2023-02-12T01:02:21;103283.44;;;3.10;73.16
39949;BME280;29070;48.102;-1.652;2023-02-12T01:07:22;103282.38;;;2.96;73.06
39949;BME280;29070;48.102;-1.652;2023-02-12T01:12:22;103277.84;;;2.84;72.86
39949;BME280;29070;48.102;-1.652;2023-02-12T01:17:22;103271.38;;;2.75;73.12
39949;BME280;29070;48.102;-1.652;2023-02-12T01:22:23;103263.41;;;2.62;72.69
39949;BME280;29070;48.102;-1.652;2023-02-12T01:27:24;103257.69;;;2.56;72.75
39949;BME280;29070;48.102;-1.652;2023-02-12T01:32:24;103246.06;;;2.47;72.83
39949;BME280;29070;48.102;-1.652;2023-02-12T01:37:24;103246.53;;;2.38;73.24
39949;BME280;29070;48.102;-1.652;2023-02-12T01:42:26;103239.75;;;2.35;73.06
39949;BME280;29070;48.102;-1.652;2023-02-12T01:47:26;103234.03;;;2.28;73.08
39949;BME280;29070;48.102;-1.652;2023-02-12T01:52:32;103227.50;;;2.21;73.37
39949;BME280;29070;48.102;-1.652;2023-02-12T01:57:35;103223.00;;;2.25;73.51
39949;BME280;29070;48.102;-1.652;2023-02-12T02:02:38;103223.84;;;2.25;74.05
39949;BME280;29070;48.102;-1.652;2023-02-12T02:07:39;103218.47;;;2.28;74.19
39949;BME280;29070;48.102;-1.652;2023-02-12T02:12:39;103218.19;;;2.35;74.42
39949;BME280;29070;48.102;-1.652;2023-02-12T02:18:10;103222.88;;;2.44;74.91
39949;BME280;29070;48.102;-1.652;2023-02-12T02:28:52;103217.56;;;2.47;75.13
39949;BME280;29070;48.102;-1.652;2023-02-12T02:39:19;103200.88;;;2.35;74.33
39949;BME280;29070;48.102;-1.652;2023-02-12T02:44:24;103203.88;;;2.27;74.10
39949;BME280;29070;48.102;-1.652;2023-02-12T02:49:31;103200.06;;;2.17;74.57
39949;BME280;29070;48.102;-1.652;2023-02-12T02:54:39;103193.53;;;2.10;74.59
39949;BME280;29070;48.102;-1.652;2023-02-12T02:59:46;103191.41;;;2.01;73.94
39949;BME280;29070;48.102;-1.652;2023-02-12T03:04:55;103190.66;;;1.99;74.70
39949;BME280;29070;48.102;-1.652;2023-02-12T03:10:10;103185.69;;;1.94;74.46
39949;BME280;29070;48.102;-1.652;2023-02-12T03:21:04;103186.69;;;1.92;74.56
39949;BME280;29070;48.102;-1.652;2023-02-12T03:26:11;103184.31;;;1.87;74.65
39949;BME280;29070;48.102;-1.652;2023-02-12T03:36:25;103177.22;;;1.73;74.12
39949;BME280;29070;48.102;-1.652;2023-02-12T03:41:34;103180.91;;;1.69;74.18
39949;BME280;29070;48.102;-1.652;2023-02-12T03:51:56;103170.25;;;1.58;74.82
39949;BME280;29070;48.102;-1.652;2023-02-12T04:02:00;103175.94;;;1.47;74.77
39949;BME280;29070;48.102;-1.652;2023-02-12T04:07:01;103179.63;;;1.41;74.95
39949;BME280;29070;48.102;-1.652;2023-02-12T04:17:50;103173.38;;;1.28;74.64
39949;BME280;29070;48.102;-1.652;2023-02-12T04:28:27;103178.25;;;1.17;74.40
39949;BME280;29070;48.102;-1.652;2023-02-12T04:33:46;103177.59;;;1.11;74.78
39949;BME280;29070;48.102;-1.652;2023-02-12T04:38:52;103188.03;;;1.10;75.36
39949;BME280;29070;48.102;-1.652;2023-02-12T04:43:54;103188.09;;;1.08;74.77
39949;BME280;29070;48.102;-1.652;2023-02-12T04:48:57;103178.75;;;1.06;74.90
39949;BME280;29070;48.102;-1.652;2023-02-12T04:53:58;103176.22;;;1.04;75.21
39949;BME280;29070;48.102;-1.652;2023-02-12T04:58:58;103186.56;;;1.04;75.22
39949;BME280;29070;48.102;-1.652;2023-02-12T05:03:58;103186.69;;;1.01;74.99
39949;BME280;29070;48.102;-1.652;2023-02-12T05:08:59;103197.94;;;1.00;75.21
39949;BME280;29070;48.102;-1.652;2023-02-12T05:13:59;103199.94;;;0.95;75.39
39949;BME280;29070;48.102;-1.652;2023-02-12T05:18:59;103202.50;;;0.95;74.58
39949;BME280;29070;48.102;-1.652;2023-02-12T05:24:01;103203.34;;;0.95;74.92
39949;BME280;29070;48.102;-1.652;2023-02-12T05:29:02;103193.56;;;1.02;75.37
39949;BME280;29070;48.102;-1.652;2023-02-12T05:34:02;103202.22;;;1.01;74.96
39949;BME280;29070;48.102;-1.652;2023-02-12T05:39:03;103197.19;;;0.98;75.59
39949;BME280;29070;48.102;-1.652;2023-02-12T05:44:04;103190.47;;;0.94;75.38
39949;BME280;29070;48.102;-1.652;2023-02-12T05:49:06;103194.13;;;0.90;75.06
39949;BME280;29070;48.102;-1.652;2023-02-12T05:54:07;103198.59;;;0.86;75.46
39949;BME280;29070;48.102;-1.652;2023-02-12T05:59:13;103192.84;;;0.80;75.43
39949;BME280;29070;48.102;-1.652;2023-02-12T06:04:17;103194.69;;;0.78;75.16
39949;BME280;29070;48.102;-1.652;2023-02-12T06:09:17;103191.16;;;0.79;75.64
39949;BME280;29070;48.102;-1.652;2023-02-12T06:14:19;103182.00;;;0.71;75.55
39949;BME280;29070;48.102;-1.652;2023-02-12T06:19:19;103177.63;;;0.73;75.38
39949;BME280;29070;48.102;-1.652;2023-02-12T06:24:21;103173.56;;;0.68;75.60
39949;BME280;29070;48.102;-1.652;2023-02-12T06:29:21;103172.72;;;0.67;75.65
39949;BME280;29070;48.102;-1.652;2023-02-12T06:34:22;103174.69;;;0.62;75.10
39949;BME280;29070;48.102;-1.652;2023-02-12T06:39:22;103183.63;;;0.55;75.26
39949;BME280;29070;48.102;-1.652;2023-02-12T06:44:22;103194.88;;;0.54;75.42
39949;BME280;29070;48.102;-1.652;2023-02-12T06:49:23;103195.75;;;0.53;75.61
39949;BME280;29070;48.102;-1.652;2023-02-12T06:54:23;103206.16;;;0.51;75.41
39949;BME280;29070;48.102;-1.652;2023-02-12T06:59:24;103201.06;;;0.50;75.56
39949;BME280;29070;48.102;-1.652;2023-02-12T07:04:24;103202.09;;;0.46;75.67
39949;BME280;29070;48.102;-1.652;2023-02-12T07:09:24;103210.97;;;0.40;75.29
39949;BME280;29070;48.102;-1.652;2023-02-12T07:14:26;103208.56;;;0.35;75.50
39949;BME280;29070;48.102;-1.652;2023-02-12T07:19:27;103204.50;;;0.30;75.32
39949;BME280;29070;48.102;-1.652;2023-02-12T07:24:27;103206.38;;;0.26;75.81
39949;BME280;29070;48.102;-1.652;2023-02-12T07:29:28;103203.81;;;0.26;75.79
39949;BME280;29070;48.102;-1.652;2023-02-12T07:34:28;103207.03;;;0.31;76.39
39949;BME280;29070;48.102;-1.652;2023-02-12T07:39:29;103212.06;;;0.34;75.75
39949;BME280;29070;48.102;-1.652;2023-02-12T07:44:29;103209.50;;;0.34;76.15
39949;BME280;29070;48.102;-1.652;2023-02-12T07:49:30;103220.72;;;0.33;75.73
39949;BME280;29070;48.102;-1.652;2023-02-12T07:54:31;103219.84;;;0.34;76.21
39949;BME280;29070;48.102;-1.652;2023-02-12T07:59:31;103212.72;;;0.40;76.26
39949;BME280;29070;48.102;-1.652;2023-02-12T08:04:31;103215.22;;;0.41;75.88
39949;BME280;29070;48.102;-1.652;2023-02-12T08:09:32;103206.63;;;0.41;76.40
39949;BME280;29070;48.102;-1.652;2023-02-12T08:14:32;103215.03;;;0.46;76.05
39949;BME280;29070;48.102;-1.652;2023-02-12T08:19:33;103217.97;;;0.57;76.69
39949;BME280;29070;48.102;-1.652;2023-02-12T08:24:34;103217.59;;;0.66;76.87
39949;BME280;29070;48.102;-1.652;2023-02-12T08:29:35;103219.00;;;0.73;77.18
39949;BME280;29070;48.102;-1.652;2023-02-12T08:34:35;103221.94;;;0.85;77.22
39949;BME280;29070;48.102;-1.652;2023-02-12T08:39:35;103221.22;;;1.00;77.84
39949;BME280;29070;48.102;-1.652;2023-02-12T08:44:36;103238.25;;;1.23;78.01
39949;BME280;29070;48.102;-1.652;2023-02-12T08:49:36;103246.50;;;1.50;78.19
39949;BME280;29070;48.102;-1.652;2023-02-12T08:54:36;103243.50;;;1.77;79.21
39949;BME280;29070;48.102;-1.652;2023-02-12T08:59:37;103240.16;;;2.10;79.35
39949;BME280;29070;48.102;-1.652;2023-02-12T09:04:37;103248.44;;;2.34;79.12
39949;BME280;29070;48.102;-1.652;2023-02-12T09:09:39;103243.81;;;2.57;79.36
39949;BME280;29070;48.102;-1.652;2023-02-12T09:14:39;103247.88;;;2.78;79.26
39949;BME280;29070;48.102;-1.652;2023-02-12T09:19:40;103241.63;;;2.98;79.51
39949;BME280;29070;48.102;-1.652;2023-02-12T09:24:40;103239.88;;;3.15;79.44
39949;BME280;29070;48.102;-1.652;2023-02-12T09:29:40;103243.41;;;3.30;79.67
39949;BME280;29070;48.102;-1.652;2023-02-12T09:34:41;103239.88;;;3.47;79.52
39949;BME280;29070;48.102;-1.652;2023-02-12T09:39:41;103243.19;;;3.65;79.58
39949;BME280;29070;48.102;-1.652;2023-02-12T09:55:26;103222.72;;;4.05;79.59
39949;BME280;29070;48.102;-1.652;2023-02-12T10:00:30;103226.75;;;4.25;79.73
39949;BME280;29070;48.102;-1.652;2023-02-12T10:05:39;103242.19;;;4.42;79.84
39949;BME280;29070;48.102;-1.652;2023-02-12T10:11:00;103243.00;;;4.57;79.81
39949;BME280;29070;48.102;-1.652;2023-02-12T10:26:46;103249.22;;;4.97;79.80
39949;BME280;29070;48.102;-1.652;2023-02-12T10:32:28;103254.50;;;5.10;79.74
39949;BME280;29070;48.102;-1.652;2023-02-12T10:42:42;103240.31;;;5.29;79.60
39949;BME280;29070;48.102;-1.652;2023-02-12T10:47:45;103236.41;;;5.49;79.64
39949;BME280;29070;48.102;-1.652;2023-02-12T10:52:55;103234.50;;;5.65;79.69
39949;BME280;29070;48.102;-1.652;2023-02-12T10:57:57;103238.25;;;5.74;79.52
39949;BME280;29070;48.102;-1.652;2023-02-12T11:03:17;103237.78;;;5.82;79.22
39949;BME280;29070;48.102;-1.652;2023-02-12T11:08:32;103226.53;;;5.94;79.24
39949;BME280;29070;48.102;-1.652;2023-02-12T11:13:34;103221.13;;;5.97;79.19
39949;BME280;29070;48.102;-1.652;2023-02-12T11:18:36;103222.81;;;5.98;78.70
39949;BME280;29070;48.102;-1.652;2023-02-12T11:23:42;103210.41;;;6.02;78.62
39949;BME280;29070;48.102;-1.652;2023-02-12T11:29:00;103213.22;;;6.37;79.45
39949;BME280;29070;48.102;-1.652;2023-02-12T11:44:51;103196.59;;;7.01;78.33
39949;BME280;29070;48.102;-1.652;2023-02-12T11:49:56;103193.97;;;7.14;78.31
39949;BME280;29070;48.102;-1.652;2023-02-12T11:55:00;103189.56;;;7.14;78.11
39949;BME280;29070;48.102;-1.652;2023-02-12T12:05:15;103180.91;;;7.49;78.10
39949;BME280;29070;48.102;-1.652;2023-02-12T12:10:38;103175.25;;;7.55;77.59
39949;BME280;29070;48.102;-1.652;2023-02-12T12:15:45;103165.13;;;7.51;77.58
39949;BME280;29070;48.102;-1.652;2023-02-12T12:26:46;103148.19;;;7.68;77.79
39949;BME280;29070;48.102;-1.652;2023-02-12T12:31:59;103152.97;;;7.96;77.51
39949;BME280;29070;48.102;-1.652;2023-02-12T12:52:59;103106.03;;;8.51;76.19
39949;BME280;29070;48.102;-1.652;2023-02-12T13:03:44;103093.78;;;8.84;75.80
39949;BME280;29070;48.102;-1.652;2023-02-12T13:35:17;103073.16;;;9.54;74.32
39949;BME280;29070;48.102;-1.652;2023-02-12T13:40:25;103066.31;;;9.63;73.70
39949;BME280;29070;48.102;-1.652;2023-02-12T13:55:52;103052.81;;;9.98;72.64
39949;BME280;29070;48.102;-1.652;2023-02-12T14:06:14;103050.50;;;10.24;72.01
39949;BME280;29070;48.102;-1.652;2023-02-12T14:11:18;103035.09;;;10.41;72.27
39949;BME280;29070;48.102;-1.652;2023-02-12T14:26:35;103033.19;;;10.62;71.02
39949;BME280;29070;48.102;-1.652;2023-02-12T14:31:38;103025.16;;;10.74;70.85
39949;BME280;29070;48.102;-1.652;2023-02-12T14:36:40;103019.63;;;10.77;70.32
39949;BME280;29070;48.102;-1.652;2023-02-12T14:41:42;103013.00;;;10.82;69.83
39949;BME280;29070;48.102;-1.652;2023-02-12T14:57:00;102998.84;;;11.13;69.23
39949;BME280;29070;48.102;-1.652;2023-02-12T15:02:05;102994.66;;;11.20;68.98
39949;BME280;29070;48.102;-1.652;2023-02-12T15:07:09;102995.34;;;11.22;68.62
39949;BME280;29070;48.102;-1.652;2023-02-12T15:12:36;102984.84;;;11.22;67.36
39949;BME280;29070;48.102;-1.652;2023-02-12T15:17:40;102993.41;;;11.24;68.12
39949;BME280;29070;48.102;-1.652;2023-02-12T15:22:44;102993.53;;;11.32;68.01
39949;BME280;29070;48.102;-1.652;2023-02-12T15:27:46;102984.38;;;11.64;68.79
39949;BME280;29070;48.102;-1.652;2023-02-12T15:32:48;102978.94;;;11.75;67.61
39949;BME280;29070;48.102;-1.652;2023-02-12T15:37:49;102986.72;;;11.67;66.90
39949;BME280;29070;48.102;-1.652;2023-02-12T15:42:53;102982.06;;;11.61;66.40
39949;BME280;29070;48.102;-1.652;2023-02-12T15:53:00;102987.78;;;11.47;66.33
39949;BME280;29070;48.102;-1.652;2023-02-12T15:58:01;103000.69;;;11.40;66.27
39949;BME280;29070;48.102;-1.652;2023-02-12T16:03:02;102987.19;;;11.25;65.94
39949;BME280;29070;48.102;-1.652;2023-02-12T16:08:02;102984.16;;;11.10;65.54
39949;BME280;29070;48.102;-1.652;2023-02-12T16:13:03;102986.41;;;10.95;65.35
39949;BME280;29070;48.102;-1.652;2023-02-12T16:18:04;102983.25;;;10.82;65.15
39949;BME280;29070;48.102;-1.652;2023-02-12T16:23:05;102982.31;;;10.73;65.17
39949;BME280;29070;48.102;-1.652;2023-02-12T16:28:14;102980.66;;;10.62;64.95
39949;BME280;29070;48.102;-1.652;2023-02-12T16:38:46;102969.59;;;10.39;64.63
39949;BME280;29070;48.102;-1.652;2023-02-12T16:44:30;102978.16;;;10.32;65.16
39949;BME280;29070;48.102;-1.652;2023-02-12T16:49:16;102972.06;;;10.21;64.98
39949;BME280;29070;48.102;-1.652;2023-02-12T16:54:31;102966.22;;;10.08;64.41
39949;BME280;29070;48.102;-1.652;2023-02-12T16:59:32;102967.31;;;9.96;65.16
39949;BME280;29070;48.102;-1.652;2023-02-12T17:04:33;102979.16;;;9.80;65.25
39949;BME280;29070;48.102;-1.652;2023-02-12T17:09:33;102974.69;;;9.71;65.31
39949;BME280;29070;48.102;-1.652;2023-02-12T17:14:34;102979.34;;;9.58;65.23
39949;BME280;29070;48.102;-1.652;2023-02-12T17:19:34;102976.25;;;9.43;65.35
39949;BME280;29070;48.102;-1.652;2023-02-12T17:24:35;102980.06;;;9.29;65.48
39949;BME280;29070;48.102;-1.652;2023-02-12T17:29:35;102983.59;;;9.18;65.54
39949;BME280;29070;48.102;-1.652;2023-02-12T17:34:36;102981.41;;;9.02;65.77
39949;BME280;29070;48.102;-1.652;2023-02-12T17:39:37;102980.53;;;8.92;65.57
39949;BME280;29070;48.102;-1.652;2023-02-12T17:44:38;102978.22;;;8.77;65.68
39949;BME280;29070;48.102;-1.652;2023-02-12T17:49:39;102979.34;;;8.64;65.78
39949;BME280;29070;48.102;-1.652;2023-02-12T17:54:43;102978.59;;;8.40;65.79
39949;BME280;29070;48.102;-1.652;2023-02-12T17:59:43;102977.94;;;8.27;65.98
39949;BME280;29070;48.102;-1.652;2023-02-12T18:04:44;102981.91;;;8.10;66.11
39949;BME280;29070;48.102;-1.652;2023-02-12T18:09:44;102972.88;;;7.92;65.91
39949;BME280;29070;48.102;-1.652;2023-02-12T18:14:44;102981.59;;;7.81;65.97
39949;BME280;29070;48.102;-1.652;2023-02-12T18:19:45;102981.13;;;7.64;66.07
39949;BME280;29070;48.102;-1.652;2023-02-12T18:24:47;102981.03;;;7.55;66.37
39949;BME280;29070;48.102;-1.652;2023-02-12T18:29:47;102997.66;;;7.42;66.45
39949;BME280;29070;48.102;-1.652;2023-02-12T18:34:48;102993.47;;;7.29;66.33
39949;BME280;29070;48.102;-1.652;2023-02-12T18:39:48;102993.47;;;7.17;66.40
39949;BME280;29070;48.102;-1.652;2023-02-12T18:44:52;102980.63;;;7.03;66.71
39949;BME280;29070;48.102;-1.652;2023-02-12T18:49:52;102989.84;;;6.96;66.77
39949;BME280;29070;48.102;-1.652;2023-02-12T18:54:52;102981.84;;;6.75;66.93
39949;BME280;29070;48.102;-1.652;2023-02-12T18:59:53;102986.72;;;6.55;66.91
39949;BME280;29070;48.102;-1.652;2023-02-12T19:04:53;102992.22;;;6.39;66.83
39949;BME280;29070;48.102;-1.652;2023-02-12T19:09:54;102986.22;;;6.26;67.00
39949;BME280;29070;48.102;-1.652;2023-02-12T19:14:54;102989.22;;;6.08;67.35
39949;BME280;29070;48.102;-1.652;2023-02-12T19:19:55;102988.81;;;5.89;66.98
39949;BME280;29070;48.102;-1.652;2023-02-12T19:24:55;102995.31;;;5.70;67.16
39949;BME280;29070;48.102;-1.652;2023-02-12T19:29:56;103004.72;;;5.60;67.62
39949;BME280;29070;48.102;-1.652;2023-02-12T19:34:56;103000.34;;;5.48;67.66
39949;BME280;29070;48.102;-1.652;2023-02-12T19:39:57;103001.78;;;5.39;68.06
39949;BME280;29070;48.102;-1.652;2023-02-12T19:44:57;103003.25;;;5.30;68.03
39949;BME280;29070;48.102;-1.652;2023-02-12T19:49:58;103005.75;;;5.19;67.93
39949;BME280;29070;48.102;-1.652;2023-02-12T19:54:58;102997.81;;;5.08;68.19
39949;BME280;29070;48.102;-1.652;2023-02-12T19:59:59;103004.47;;;4.99;68.31
39949;BME280;29070;48.102;-1.652;2023-02-12T20:04:59;103006.84;;;4.89;68.39
39949;BME280;29070;48.102;-1.652;2023-02-12T20:09:59;103002.34;;;4.78;68.54
39949;BME280;29070;48.102;-1.652;2023-02-12T20:15:00;102999.38;;;4.70;68.28
39949;BME280;29070;48.102;-1.652;2023-02-12T20:20:03;103004.78;;;4.54;68.53
39949;BME280;29070;48.102;-1.652;2023-02-12T20:25:04;103002.94;;;4.42;68.56
39949;BME280;29070;48.102;-1.652;2023-02-12T20:30:05;103007.47;;;4.26;68.55
39949;BME280;29070;48.102;-1.652;2023-02-12T20:35:05;103011.16;;;4.22;68.80
39949;BME280;29070;48.102;-1.652;2023-02-12T20:40:07;103003.13;;;4.12;69.12
39949;BME280;29070;48.102;-1.652;2023-02-12T20:45:07;103009.53;;;4.06;69.08
39949;BME280;29070;48.102;-1.652;2023-02-12T20:50:08;103008.69;;;4.06;69.24
39949;BME280;29070;48.102;-1.652;2023-02-12T20:55:09;103013.25;;;4.02;69.48
39949;BME280;29070;48.102;-1.652;2023-02-12T21:00:10;103020.03;;;3.90;69.31
39949;BME280;29070;48.102;-1.652;2023-02-12T21:05:10;103024.94;;;3.80;69.29
39949;BME280;29070;48.102;-1.652;2023-02-12T21:10:11;103039.06;;;3.76;69.89
39949;BME280;29070;48.102;-1.652;2023-02-12T21:15:11;103043.88;;;3.68;69.87
39949;BME280;29070;48.102;-1.652;2023-02-12T21:20:11;103050.19;;;3.64;70.11
39949;BME280;29070;48.102;-1.652;2023-02-12T21:25:12;103053.25;;;3.56;69.71
39949;BME280;29070;48.102;-1.652;2023-02-12T21:30:12;103045.53;;;3.55;70.01
39949;BME280;29070;48.102;-1.652;2023-02-12T21:35:13;103043.84;;;3.54;70.38
39949;BME280;29070;48.102;-1.652;2023-02-12T21:40:13;103045.72;;;3.52;70.43
39949;BME280;29070;48.102;-1.652;2023-02-12T21:45:15;103045.72;;;3.52;70.74
39949;BME280;29070;48.102;-1.652;2023-02-12T21:50:15;103045.34;;;3.43;70.89
39949;BME280;29070;48.102;-1.652;2023-02-12T21:55:16;103043.25;;;3.34;70.42
39949;BME280;29070;48.102;-1.652;2023-02-12T22:00:16;103038.81;;;3.22;70.49
39949;BME280;29070;48.102;-1.652;2023-02-12T22:05:17;103041.16;;;3.11;70.46
39949;BME280;29070;48.102;-1.652;2023-02-12T22:10:17;103043.94;;;3.08;70.77
39949;BME280;29070;48.102;-1.652;2023-02-12T22:15:18;103038.19;;;3.02;71.03
39949;BME280;29070;48.102;-1.652;2023-02-12T22:20:18;103028.00;;;2.99;70.93
39949;BME280;29070;48.102;-1.652;2023-02-12T22:25:19;103026.31;;;2.98;71.23
39949;BME280;29070;48.102;-1.652;2023-02-12T22:30:22;103022.22;;;2.94;71.38
39949;BME280;29070;48.102;-1.652;2023-02-12T22:35:23;103029.44;;;2.89;71.66
39949;BME280;29070;48.102;-1.652;2023-02-12T22:40:23;103034.91;;;2.84;71.32
39949;BME280;29070;48.102;-1.652;2023-02-12T22:45:24;103021.50;;;2.76;71.23
39949;BME280;29070;48.102;-1.652;2023-02-12T22:50:24;103025.22;;;2.72;71.23
39949;BME280;29070;48.102;-1.652;2023-02-12T22:55:24;103021.00;;;2.70;71.54
39949;BME280;29070;48.102;-1.652;2023-02-12T23:00:25;103015.84;;;2.70;71.69
39949;BME280;29070;48.102;-1.652;2023-02-12T23:05:25;103012.31;;;2.71;72.25
39949;BME280;29070;48.102;-1.652;2023-02-12T23:10:27;103010.47;;;2.73;72.08
39949;BME280;29070;48.102;-1.652;2023-02-12T23:15:28;103008.72;;;2.73;72.60
39949;BME280;29070;48.102;-1.652;2023-02-12T23:20:28;103019.84;;;2.75;72.47
39949;BME280;29070;48.102;-1.652;2023-02-12T23:25:28;103016.41;;;2.75;72.47
39949;BME280;29070;48.102;-1.652;2023-02-12T23:30:29;103016.50;;;2.73;72.67
39949;BME280;29070;48.102;-1.652;2023-02-12T23:35:29;103006.13;;;2.73;72.86
39949;BME280;29070;48.102;-1.652;2023-02-12T23:40:31;102999.28;;;2.72;73.00
39949;BME280;29070;48.102;-1.652;2023-02-12T23:45:31;103007.16;;;2.71;73.07
39949;BME280;29070;48.102;-1.652;2023-02-12T23:50:32;103010.41;;;2.74;73.24
39949;BME280;29070;48.102;-1.652;2023-02-12T23:55:35;103007.81;;;2.74;73.43
